createdAt,value
2022-10-26T00:01:10.528Z,63.81
2022-10-26T00:03:38.217Z,62.67
2022-10-26T00:06:09.695Z,62.05
2022-10-26T00:08:37.182Z,64.27
2022-10-26T00:11:04.562Z,65.67
2022-10-26T00:13:31.728Z,63.41
2022-10-26T00:18:30.370Z,66.91
2022-10-26T00:21:03.530Z,67.69
2022-10-26T00:23:30.906Z,67.16
2022-10-26T00:25:58.130Z,69.25
2022-10-26T00:28:25.075Z,71.51
2022-10-26T00:30:52.187Z,70.83
2022-10-26T00:33:19.232Z,73.74
2022-10-26T00:35:53.813Z,73.17
2022-10-26T00:38:20.998Z,74.83
2022-10-26T00:40:48.198Z,78.48
2022-10-26T00:43:17.479Z,78.02
2022-10-26T00:45:45.798Z,76.33
2022-10-26T00:48:22.485Z,75.31
2022-10-26T00:50:49.392Z,77.98
2022-10-26T00:53:16.398Z,76.85
2022-10-26T00:55:46.978Z,76.29
2022-10-26T00:58:14.124Z,73.94
2022-10-26T01:00:42.240Z,73.13
2022-10-26T01:03:10.812Z,73.49
2022-10-26T01:05:40.702Z,73.29
2022-10-26T01:08:09.076Z,74.68
2022-10-26T01:10:38.449Z,74.91
2022-10-26T01:13:05.844Z,78.82
2022-10-26T01:15:40.716Z,78.17
2022-10-26T01:18:16.178Z,75.93
2022-10-26T01:21:15.288Z,76.38
2022-10-26T01:24:00.498Z,77.39
2022-10-26T01:26:50.161Z,77.26
2022-10-26T01:29:38.478Z,75.99
2022-10-26T01:32:10.897Z,73.98
2022-10-26T01:35:11.052Z,74.67
2022-10-26T01:37:44.173Z,69.54
2022-10-26T01:40:23.569Z,67.02
2022-10-26T01:42:53.687Z,67.50
2022-10-26T01:45:20.616Z,68.30
2022-10-26T01:47:48.524Z,67.50
2022-10-26T01:50:15.756Z,69.21
2022-10-26T01:52:42.624Z,69.81
2022-10-26T01:55:40.915Z,69.64
2022-10-26T01:58:26.137Z,67.45
2022-10-26T02:01:07.168Z,65.36
2022-10-26T02:03:59.961Z,67.07
2022-10-26T02:06:40.265Z,64.57
2022-10-26T02:09:30.048Z,62.17
2022-10-26T02:11:57.415Z,64.33
2022-10-26T02:14:50.842Z,63.77
2022-10-26T02:17:29.120Z,66.16
2022-10-26T02:20:06.832Z,65.88
2022-10-26T02:22:40.656Z,65.61
2022-10-26T02:25:18.502Z,66.11
2022-10-26T02:27:48.342Z,72.79
2022-10-26T02:30:15.478Z,67.52
2022-10-26T02:32:46.558Z,66.15
2022-10-26T02:35:14.958Z,64.64
2022-10-26T02:37:42.558Z,62.17
2022-10-26T02:40:13.946Z,62.12
2022-10-26T02:42:42.538Z,59.17
2022-10-26T02:45:12.586Z,60.54
2022-10-26T02:47:39.518Z,62.66
2022-10-26T02:50:06.798Z,62.98
2022-10-26T02:52:50.191Z,62.50
2022-10-26T02:55:20.069Z,62.15
2022-10-26T02:57:51.452Z,62.83
2022-10-26T03:00:19.010Z,62.77
2022-10-26T03:02:52.491Z,61.97
2022-10-26T03:05:32.694Z,62.44
2022-10-26T03:08:00.584Z,62.40
2022-10-26T03:10:27.547Z,63.39
2022-10-26T03:12:54.681Z,61.53
2022-10-26T03:15:21.951Z,61.89
2022-10-26T03:17:49.085Z,62.96
2022-10-26T03:20:16.289Z,62.65
2022-10-26T03:22:43.141Z,62.72
2022-10-26T03:25:10.221Z,63.36
2022-10-26T03:27:38.089Z,64.32
2022-10-26T03:30:05.791Z,65.04
2022-10-26T03:32:32.663Z,65.34
2022-10-26T03:34:59.524Z,64.99
2022-10-26T03:37:26.507Z,64.44
2022-10-26T03:39:53.364Z,63.81
2022-10-26T03:42:20.258Z,63.33
2022-10-26T03:44:48.449Z,63.26
2022-10-26T03:47:15.321Z,63.01
2022-10-26T03:49:42.214Z,62.59
2022-10-26T03:52:09.108Z,62.61
2022-10-26T03:54:35.962Z,62.52
2022-10-26T03:57:02.865Z,62.33
2022-10-26T03:59:29.712Z,62.59
2022-10-26T04:01:57.898Z,63.83
2022-10-26T04:04:25.319Z,64.00
2022-10-26T04:06:52.234Z,62.95
2022-10-26T04:09:19.204Z,61.63
2022-10-26T04:11:46.065Z,62.11
2022-10-26T04:14:12.948Z,59.72
2022-10-26T04:16:39.796Z,59.78
2022-10-26T04:19:06.671Z,57.75
2022-10-26T04:21:33.633Z,60.90
2022-10-26T04:24:00.485Z,61.71
2022-10-26T04:26:27.583Z,63.13
2022-10-26T04:28:54.552Z,62.25
2022-10-26T04:31:21.620Z,62.95
2022-10-26T04:33:48.525Z,62.51
2022-10-26T04:36:15.414Z,62.21
2022-10-26T04:38:42.226Z,62.42
2022-10-26T04:41:09.052Z,63.13
2022-10-26T04:43:35.921Z,61.01
2022-10-26T04:46:02.806Z,62.01
2022-10-26T04:48:29.747Z,62.87
2022-10-26T04:50:59.910Z,62.65
2022-10-26T04:53:27.500Z,58.50
2022-10-26T04:55:58.775Z,59.29
2022-10-26T04:58:26.259Z,59.30
2022-10-26T05:00:53.217Z,60.05
2022-10-26T05:03:20.110Z,61.53
2022-10-26T05:05:48.034Z,62.82
2022-10-26T05:08:16.038Z,64.09
2022-10-26T05:10:43.161Z,68.65
2022-10-26T05:13:11.023Z,68.13
2022-10-26T05:15:37.904Z,68.03
2022-10-26T05:18:05.957Z,68.09
2022-10-26T05:20:34.603Z,65.46
2022-10-26T05:23:03.732Z,68.07
2022-10-26T05:25:32.604Z,68.71
2022-10-26T05:28:00.308Z,68.99
2022-10-26T05:30:27.978Z,68.46
2022-10-26T05:32:58.839Z,68.55
2022-10-26T05:35:26.375Z,66.33
2022-10-26T05:37:53.946Z,66.48
2022-10-26T05:40:21.210Z,66.42
2022-10-26T05:42:48.460Z,67.02
2022-10-26T05:45:15.616Z,67.22
2022-10-26T05:47:44.920Z,67.09
2022-10-26T05:50:12.369Z,66.58
2022-10-26T05:52:42.415Z,65.71
2022-10-26T05:55:10.894Z,66.51
2022-10-26T05:57:38.397Z,65.82
2022-10-26T06:00:10.626Z,63.21
2022-10-26T06:03:00.435Z,62.57
2022-10-26T06:05:29.076Z,59.43
2022-10-26T06:07:56.312Z,59.91
2022-10-26T06:10:23.533Z,62.43
2022-10-26T06:12:50.893Z,63.52
2022-10-26T06:15:22.042Z,63.06
2022-10-26T06:18:05.772Z,64.24
2022-10-26T06:20:55.385Z,64.97
2022-10-26T06:23:41.491Z,65.01
2022-10-26T06:26:33.146Z,66.13
2022-10-26T06:29:12.952Z,66.57
2022-10-26T06:31:39.866Z,65.36
2022-10-26T06:34:06.743Z,65.49
2022-10-26T06:36:33.673Z,68.86
2022-10-26T06:39:03.897Z,66.52
2022-10-26T06:41:33.092Z,66.63
2022-10-26T06:44:00.261Z,61.48
2022-10-26T06:46:37.947Z,60.06
2022-10-26T06:49:29.430Z,59.79
2022-10-26T06:52:03.399Z,59.39
2022-10-26T06:54:45.455Z,60.91
2022-10-26T06:57:13.538Z,62.91
2022-10-26T06:59:45.330Z,62.47
2022-10-26T07:02:12.384Z,63.40
2022-10-26T07:04:39.382Z,64.68
2022-10-26T07:07:06.244Z,64.44
2022-10-26T07:09:33.127Z,66.23
2022-10-26T07:12:00.123Z,65.99
2022-10-26T07:14:26.976Z,66.05
2022-10-26T07:16:54.625Z,66.11
2022-10-26T07:19:21.497Z,66.23
2022-10-26T07:21:48.432Z,66.79
2022-10-26T07:24:15.361Z,66.38
2022-10-26T07:26:42.261Z,67.22
2022-10-26T07:29:09.076Z,66.48
2022-10-26T07:31:35.960Z,67.83
2022-10-26T07:34:03.140Z,69.80
2022-10-26T07:36:30.322Z,71.12
2022-10-26T07:38:57.140Z,70.17
2022-10-26T07:41:23.982Z,70.66
2022-10-26T07:43:51.001Z,71.71
2022-10-26T07:46:18.897Z,72.88
2022-10-26T07:48:45.804Z,72.96
2022-10-26T07:51:12.876Z,76.51
2022-10-26T07:53:39.732Z,76.22
2022-10-26T07:56:07.295Z,75.25
2022-10-26T07:58:34.334Z,76.85
2022-10-26T08:01:11.937Z,73.80
2022-10-26T08:03:39.053Z,73.60
2022-10-26T08:06:06.347Z,73.61
2022-10-26T08:08:33.637Z,73.63
2022-10-26T08:11:00.513Z,72.89
2022-10-26T08:13:27.405Z,70.85
2022-10-26T08:16:01.707Z,69.37
2022-10-26T08:18:28.703Z,67.70
2022-10-26T08:21:01.831Z,64.81
2022-10-26T08:23:37.083Z,64.98
2022-10-26T08:26:04.353Z,63.91
2022-10-26T08:28:31.443Z,63.31
2022-10-26T08:30:58.597Z,62.64
2022-10-26T08:33:25.870Z,64.37
2022-10-26T08:36:11.759Z,61.54
2022-10-26T08:38:38.579Z,62.73
2022-10-26T08:41:09.474Z,62.79
2022-10-26T08:43:54.712Z,64.18
2022-10-26T08:46:29.172Z,66.83
2022-10-26T08:48:59.670Z,65.47
2022-10-26T08:51:35.579Z,63.94
2022-10-26T08:54:09.926Z,65.38
2022-10-26T08:56:51.003Z,67.55
2022-10-26T08:59:33.956Z,64.47
2022-10-26T09:02:02.891Z,64.62
2022-10-26T09:04:32.057Z,63.19
2022-10-26T09:07:19.341Z,62.87
2022-10-26T09:10:13.848Z,62.18
2022-10-26T09:13:24.056Z,62.67
2022-10-26T09:16:03.187Z,62.81
2022-10-26T09:18:39.252Z,61.42
2022-10-26T09:21:24.875Z,61.05
2022-10-26T09:23:54.834Z,62.15
2022-10-26T09:26:49.415Z,59.42
2022-10-26T09:29:16.249Z,58.25
2022-10-26T09:31:45.697Z,59.52
2022-10-26T09:34:28.354Z,60.36
2022-10-26T09:36:57.835Z,62.62
2022-10-26T09:39:36.421Z,64.55
2022-10-26T09:42:13.070Z,62.63
2022-10-26T09:44:55.996Z,60.48
2022-10-26T09:47:34.141Z,60.22
2022-10-26T09:50:36.764Z,60.06
2022-10-26T09:53:04.047Z,63.39
2022-10-26T09:55:51.477Z,63.36
2022-10-26T09:58:22.524Z,62.65
2022-10-26T10:00:49.431Z,61.28
2022-10-26T10:03:30.266Z,60.07
2022-10-26T10:06:16.312Z,62.52
2022-10-26T10:08:44.037Z,60.89
2022-10-26T10:11:14.807Z,58.86
2022-10-26T10:13:46.069Z,58.86
2022-10-26T10:16:27.569Z,59.73
2022-10-26T10:18:56.657Z,61.70
2022-10-26T10:21:50.190Z,60.57
2022-10-26T10:24:38.291Z,61.38
2022-10-26T10:27:17.422Z,59.35
2022-10-26T10:29:52.224Z,62.90
2022-10-26T10:32:21.879Z,62.48
2022-10-26T10:34:53.822Z,61.16
2022-10-26T10:37:25.046Z,62.53
2022-10-26T10:39:52.434Z,63.54
2022-10-26T10:42:22.603Z,63.28
2022-10-26T10:44:54.469Z,63.54
2022-10-26T10:47:35.678Z,63.60
2022-10-26T10:50:06.636Z,59.74
2022-10-26T10:52:35.438Z,57.69
2022-10-26T10:55:16.561Z,58.40
2022-10-26T10:58:03.242Z,58.95
2022-10-26T11:00:33.762Z,58.02
2022-10-26T11:03:27.822Z,56.67
2022-10-26T11:06:10.953Z,55.03
2022-10-26T11:09:11.132Z,54.65
2022-10-26T11:11:48.795Z,55.01
2022-10-26T11:14:28.462Z,54.40
2022-10-26T11:17:18.506Z,56.21
2022-10-26T11:19:48.170Z,54.48
2022-10-26T11:22:18.016Z,57.43
2022-10-26T11:25:16.241Z,56.78
2022-10-26T11:27:44.197Z,57.10
2022-10-26T11:30:16.924Z,57.68
2022-10-26T11:32:44.725Z,57.98
2022-10-26T11:35:17.877Z,59.06
2022-10-26T11:37:50.396Z,57.04
2022-10-26T11:40:53.779Z,59.77
2022-10-26T11:43:40.636Z,59.89
2022-10-26T11:46:16.706Z,60.24
2022-10-26T11:49:00.569Z,61.39
2022-10-26T11:51:30.565Z,62.81
2022-10-26T11:53:58.655Z,62.48
2022-10-26T11:56:36.187Z,61.00
2022-10-26T12:01:34.917Z,62.16
2022-10-26T12:04:03.751Z,61.35
2022-10-26T12:06:32.686Z,61.73
2022-10-26T12:09:09.359Z,64.87
2022-10-26T12:11:39.471Z,63.51
2022-10-26T12:14:24.864Z,63.79
2022-10-26T12:16:57.294Z,64.18
2022-10-26T12:19:45.973Z,61.50
2022-10-26T12:22:15.021Z,62.96
2022-10-26T12:25:15.374Z,62.94
2022-10-26T12:27:42.435Z,61.76
2022-10-26T12:30:12.155Z,60.04
2022-10-26T12:32:41.535Z,62.37
2022-10-26T12:35:33.689Z,60.52
2022-10-26T12:38:02.490Z,58.68
2022-10-26T12:40:35.047Z,60.64
2022-10-26T12:43:13.820Z,59.74
2022-10-26T12:45:42.718Z,60.20
2022-10-26T12:48:38.818Z,59.36
2022-10-26T12:51:40.019Z,60.99
2022-10-26T12:54:35.690Z,63.78
2022-10-26T12:57:24.265Z,61.46
2022-10-26T13:00:06.202Z,59.54
2022-10-26T13:03:05.170Z,57.13
2022-10-26T13:06:09.968Z,57.70
2022-10-26T13:08:46.308Z,60.44
2022-10-26T13:11:24.851Z,60.19
2022-10-26T13:13:56.720Z,59.02
2022-10-26T13:16:25.066Z,61.06
2022-10-26T13:18:52.014Z,59.93
2022-10-26T13:21:21.259Z,61.01
2022-10-26T13:24:04.349Z,61.62
2022-10-26T13:26:32.342Z,63.71
2022-10-26T13:29:04.311Z,61.83
2022-10-26T13:31:34.535Z,61.32
2022-10-26T13:34:04.665Z,60.93
2022-10-26T13:36:39.279Z,62.37
2022-10-26T13:39:31.558Z,62.32
2022-10-26T13:41:59.584Z,60.71
2022-10-26T13:44:46.258Z,59.29
2022-10-26T13:47:36.736Z,60.25
2022-10-26T13:50:10.799Z,59.20
2022-10-26T13:52:44.565Z,58.90
2022-10-26T13:55:17.433Z,57.20
2022-10-26T13:57:47.006Z,57.67
2022-10-26T14:00:20.692Z,59.30
2022-10-26T14:02:48.428Z,57.58
2022-10-26T14:05:17.927Z,58.05
2022-10-26T14:07:58.666Z,58.88
2022-10-26T14:10:37.607Z,59.65
2022-10-26T14:13:17.053Z,60.98
2022-10-26T14:15:45.329Z,61.11
2022-10-26T14:18:23.479Z,61.22
2022-10-26T14:20:56.170Z,61.81
2022-10-26T14:23:50.150Z,60.71
2022-10-26T14:26:26.194Z,60.71
2022-10-26T14:28:58.258Z,61.09
2022-10-26T14:31:30.965Z,61.48
2022-10-26T14:33:59.755Z,61.91
2022-10-26T14:36:33.971Z,63.47
2022-10-26T14:39:05.207Z,62.03
2022-10-26T14:41:32.911Z,61.31
2022-10-26T14:44:00.488Z,62.24
2022-10-26T14:46:29.357Z,61.53
2022-10-26T14:48:58.103Z,61.29
2022-10-26T14:51:35.244Z,62.02
2022-10-26T14:54:01.940Z,60.73
2022-10-26T14:56:36.757Z,59.03
2022-10-26T14:59:22.963Z,59.60
2022-10-26T15:02:16.819Z,57.52
2022-10-26T15:05:15.657Z,56.88
2022-10-26T15:07:44.747Z,57.40
2022-10-26T15:10:36.064Z,58.30
2022-10-26T15:13:33.367Z,58.00
2022-10-26T15:16:28.124Z,57.20
2022-10-26T15:18:59.031Z,57.26
2022-10-26T15:21:42.292Z,56.31
2022-10-26T15:24:27.589Z,57.24
2022-10-26T15:26:54.519Z,55.85
2022-10-26T15:29:39.512Z,56.89
2022-10-26T15:32:23.650Z,57.83
2022-10-26T15:35:07.222Z,56.36
2022-10-26T15:37:34.136Z,57.02
2022-10-26T15:40:01.251Z,56.83
2022-10-26T15:42:28.950Z,58.90
2022-10-26T15:44:59.731Z,58.42
2022-10-26T15:47:30.792Z,56.69
2022-10-26T15:49:57.634Z,55.43
2022-10-26T15:52:24.481Z,56.62
2022-10-26T15:54:52.400Z,56.31
2022-10-26T15:57:21.426Z,57.59
2022-10-26T15:59:48.523Z,61.16
2022-10-26T16:02:15.937Z,63.08
2022-10-26T16:04:42.900Z,60.18
2022-10-26T16:07:13.501Z,60.20
2022-10-26T16:09:41.273Z,57.62
2022-10-26T16:12:12.356Z,56.81
2022-10-26T16:15:00.580Z,56.74
2022-10-26T16:17:26.364Z,56.78
2022-10-26T16:19:53.233Z,56.62
2022-10-26T16:22:20.086Z,58.33
2022-10-26T16:24:47.964Z,58.34
2022-10-26T16:27:14.836Z,58.41
2022-10-26T16:29:41.664Z,57.39
2022-10-26T16:32:08.498Z,55.09
2022-10-26T16:34:35.327Z,56.15
2022-10-26T16:37:02.173Z,58.49
2022-10-26T16:39:29.015Z,59.46
2022-10-26T16:41:55.925Z,61.48
2022-10-26T16:44:22.773Z,59.85
2022-10-26T16:46:49.641Z,56.51
2022-10-26T16:49:16.548Z,55.25
2022-10-26T16:51:43.431Z,56.92
2022-10-26T16:54:10.279Z,56.86
2022-10-26T16:56:37.220Z,59.60
2022-10-26T16:59:04.146Z,60.95
2022-10-26T17:01:31.226Z,61.71
2022-10-26T17:03:58.225Z,62.90
2022-10-26T17:06:25.141Z,63.58
2022-10-26T17:08:51.968Z,61.26
2022-10-26T17:11:21.016Z,60.80
2022-10-26T17:13:48.382Z,59.64
2022-10-26T17:16:17.826Z,61.38
2022-10-26T17:18:45.181Z,62.80
2022-10-26T17:21:13.593Z,61.70
2022-10-26T17:23:40.487Z,62.70
2022-10-26T17:26:09.783Z,63.27
2022-10-26T17:28:37.269Z,62.04
2022-10-26T17:31:05.780Z,62.70
2022-10-26T17:33:36.239Z,59.74
2022-10-26T17:36:04.993Z,59.81
2022-10-26T17:38:33.300Z,59.46
2022-10-26T17:41:02.170Z,63.75
2022-10-26T17:43:33.261Z,65.10
2022-10-26T17:46:00.873Z,69.88
2022-10-26T17:48:28.744Z,69.76
2022-10-26T17:50:57.791Z,68.95
2022-10-26T17:53:24.745Z,66.15
2022-10-26T17:56:02.523Z,66.32
2022-10-26T17:58:29.626Z,64.35
2022-10-26T18:01:00.113Z,60.51
2022-10-26T18:03:26.963Z,60.79
2022-10-26T18:05:53.880Z,59.01
2022-10-26T18:08:21.757Z,60.00
2022-10-26T18:10:49.848Z,57.10
2022-10-26T18:13:17.361Z,57.40
2022-10-26T18:15:44.329Z,60.43
2022-10-26T18:18:11.591Z,62.28
2022-10-26T18:20:38.460Z,64.69
2022-10-26T18:23:05.424Z,64.36
2022-10-26T18:25:33.975Z,63.46
2022-10-26T18:28:00.904Z,63.68
2022-10-26T18:30:28.061Z,64.44
2022-10-26T18:32:54.955Z,64.39
2022-10-26T18:35:21.797Z,66.43
2022-10-26T18:37:49.101Z,66.62
2022-10-26T18:40:16.277Z,64.30
2022-10-26T18:42:43.129Z,63.14
2022-10-26T18:45:10.285Z,62.30
2022-10-26T18:47:37.127Z,62.42
2022-10-26T18:50:04.091Z,63.77
2022-10-26T18:52:30.969Z,65.81
2022-10-26T18:54:57.939Z,65.96
2022-10-26T18:57:27.189Z,66.84
2022-10-26T18:59:55.155Z,67.06
2022-10-26T19:02:23.177Z,66.45
2022-10-26T19:04:53.169Z,65.18
2022-10-26T19:07:20.373Z,65.27
2022-10-26T19:09:47.203Z,65.41
2022-10-26T19:12:14.047Z,65.22
2022-10-26T19:14:40.900Z,65.36
2022-10-26T19:17:07.831Z,64.80
2022-10-26T19:19:34.692Z,64.23
2022-10-26T19:22:01.639Z,64.24
2022-10-26T19:24:28.529Z,62.83
2022-10-26T19:26:56.777Z,62.43
2022-10-26T19:29:23.723Z,61.56
2022-10-26T19:31:53.596Z,62.83
2022-10-26T19:34:20.542Z,63.10
2022-10-26T19:36:47.780Z,62.50
2022-10-26T19:39:16.160Z,64.95
2022-10-26T19:41:43.679Z,64.18
2022-10-26T19:44:12.027Z,63.19
2022-10-26T19:46:39.780Z,60.45
2022-10-26T19:49:07.269Z,60.16
2022-10-26T19:51:34.135Z,61.04
2022-10-26T19:54:03.932Z,60.68
2022-10-26T19:56:32.538Z,62.34
2022-10-26T19:58:59.667Z,62.20
2022-10-26T20:01:26.589Z,61.40
2022-10-26T20:03:53.550Z,60.49
2022-10-26T20:06:20.463Z,59.62
2022-10-26T20:08:49.068Z,62.17
2022-10-26T20:11:17.657Z,62.28
2022-10-26T20:13:46.014Z,61.25
2022-10-26T20:16:13.463Z,63.18
2022-10-26T20:18:44.094Z,61.36
2022-10-26T20:21:14.901Z,62.29
2022-10-26T20:23:42.846Z,62.00
2022-10-26T20:26:11.853Z,63.23
2022-10-26T20:28:45.360Z,62.40
2022-10-26T20:31:12.703Z,62.06
2022-10-26T20:33:39.544Z,63.71
2022-10-26T20:36:06.734Z,63.44
2022-10-26T20:38:33.927Z,61.99
2022-10-26T20:41:03.697Z,62.13
2022-10-26T20:43:33.610Z,61.83
2022-10-26T20:46:00.802Z,61.19
2022-10-26T20:48:27.989Z,58.80
2022-10-26T20:51:04.078Z,60.03
2022-10-26T20:54:15.863Z,61.75
2022-10-26T20:56:42.905Z,62.76
2022-10-26T20:59:58.181Z,63.57
2022-10-26T21:02:25.051Z,62.33
2022-10-26T21:04:51.871Z,63.00
2022-10-26T21:07:18.721Z,64.46
2022-10-26T21:09:45.547Z,64.88
2022-10-26T21:12:12.450Z,64.87
2022-10-26T21:14:41.066Z,66.29
2022-10-26T21:17:08.429Z,65.42
2022-10-26T21:19:35.476Z,66.46
2022-10-26T21:22:02.557Z,66.68
2022-10-26T21:24:29.423Z,63.66
2022-10-26T21:26:56.349Z,62.36
2022-10-26T21:29:23.218Z,60.65
2022-10-26T21:31:50.087Z,61.42
2022-10-26T21:34:16.910Z,61.48
2022-10-26T21:36:43.810Z,60.39
2022-10-26T21:39:10.682Z,60.76
2022-10-26T21:41:37.936Z,61.60
2022-10-26T21:44:09.192Z,61.85
2022-10-26T21:46:38.430Z,62.26
2022-10-26T21:49:05.695Z,64.40
2022-10-26T21:51:32.602Z,65.30
2022-10-26T21:53:59.517Z,66.47
2022-10-26T21:56:26.340Z,67.17
2022-10-26T21:58:53.272Z,66.62
2022-10-26T22:01:21.942Z,64.61
2022-10-26T22:03:49.434Z,64.56
2022-10-26T22:08:50.245Z,70.21
2022-10-26T22:11:19.630Z,73.27
2022-10-26T22:13:47.231Z,76.53
2022-10-26T22:16:16.661Z,75.13
2022-10-26T22:18:45.093Z,73.41
2022-10-26T22:21:13.186Z,73.25
2022-10-26T22:23:41.541Z,72.93
2022-10-26T22:26:14.663Z,71.85
2022-10-26T22:28:43.153Z,73.65
2022-10-26T22:31:15.465Z,71.44
2022-10-26T22:33:42.794Z,70.66
2022-10-26T22:36:12.692Z,73.36
2022-10-26T22:38:39.832Z,75.31
2022-10-26T22:41:06.953Z,73.47
2022-10-26T22:43:34.033Z,69.80
2022-10-26T22:46:07.798Z,67.73
2022-10-26T22:48:35.454Z,65.59
2022-10-26T22:51:07.758Z,64.43
2022-10-26T22:53:34.580Z,59.78
2022-10-26T22:56:02.331Z,62.71
2022-10-26T22:58:29.238Z,62.61
2022-10-26T23:01:06.234Z,62.29
2022-10-26T23:03:33.160Z,64.66
2022-10-26T23:06:00.104Z,64.85
2022-10-26T23:08:27.430Z,64.64
2022-10-26T23:10:54.447Z,64.34
2022-10-26T23:13:21.339Z,61.43
2022-10-26T23:15:48.171Z,58.43
2022-10-26T23:18:15.060Z,61.03
2022-10-26T23:20:41.911Z,59.73
2022-10-26T23:23:08.777Z,61.25
2022-10-26T23:25:35.604Z,63.21
2022-10-26T23:28:02.456Z,63.89
2022-10-26T23:30:29.351Z,65.29
2022-10-26T23:32:56.573Z,64.73
2022-10-26T23:35:23.572Z,65.83
2022-10-26T23:37:50.403Z,65.51
2022-10-26T23:40:17.341Z,63.84
2022-10-26T23:42:44.214Z,63.88
2022-10-26T23:45:11.172Z,61.87
2022-10-26T23:47:38.043Z,62.03
2022-10-26T23:50:05.189Z,62.34
2022-10-26T23:52:32.028Z,61.84
2022-10-26T23:54:58.880Z,62.43
2022-10-26T23:57:25.794Z,64.16
2022-10-26T23:59:53.246Z,64.30
